createdAt,value
2022-12-13T00:02:18.255Z,70.85
2022-12-13T00:04:47.853Z,70.37
2022-12-13T00:07:16.856Z,71.11
2022-12-13T00:09:46.158Z,70.58
2022-12-13T00:12:15.313Z,70.75
2022-12-13T00:14:44.620Z,70.78
2022-12-13T00:17:13.651Z,70.40
2022-12-13T00:19:44.434Z,70.94
2022-12-13T00:22:13.672Z,70.58
2022-12-13T00:24:46.116Z,70.38
2022-12-13T00:27:15.467Z,70.79
2022-12-13T00:29:44.777Z,70.52
2022-12-13T00:32:13.939Z,70.33
2022-12-13T00:34:44.939Z,70.58
2022-12-13T00:37:14.515Z,70.38
2022-12-13T00:39:43.819Z,70.65
2022-12-13T00:42:12.912Z,70.43
2022-12-13T00:44:42.226Z,70.61
2022-12-13T00:47:12.052Z,70.34
2022-12-13T00:49:41.599Z,70.13
2022-12-13T00:52:11.971Z,70.33
2022-12-13T00:54:41.576Z,70.62
2022-12-13T00:57:10.574Z,70.70
2022-12-13T00:59:39.983Z,70.69
2022-12-13T01:02:09.198Z,70.39
2022-12-13T01:04:39.126Z,70.54
2022-12-13T01:07:08.255Z,70.47
2022-12-13T01:09:40.100Z,70.76
2022-12-13T01:12:11.226Z,70.67
2022-12-13T01:14:41.919Z,70.51
2022-12-13T01:17:10.833Z,70.53
2022-12-13T01:19:40.258Z,70.44
2022-12-13T01:22:11.280Z,70.71
2022-12-13T01:24:42.123Z,70.67
2022-12-13T01:27:11.388Z,70.76
2022-12-13T01:29:40.845Z,70.94
2022-12-13T01:32:09.983Z,70.86
2022-12-13T01:34:39.349Z,70.90
2022-12-13T01:37:08.410Z,70.86
2022-12-13T01:39:38.584Z,70.49
2022-12-13T01:42:15.090Z,70.88
2022-12-13T01:45:20.458Z,70.62
2022-12-13T01:47:54.735Z,70.56
2022-12-13T01:50:27.708Z,70.63
2022-12-13T01:53:00.239Z,70.60
2022-12-13T01:55:34.029Z,70.75
2022-12-13T01:58:14.960Z,70.58
2022-12-13T02:00:46.733Z,70.58
2022-12-13T02:03:21.291Z,70.29
2022-12-13T02:06:00.595Z,70.35
2022-12-13T02:08:30.339Z,70.48
2022-12-13T02:11:06.066Z,70.55
2022-12-13T02:13:39.310Z,70.56
2022-12-13T02:16:22.458Z,70.36
2022-12-13T02:19:09.867Z,70.46
2022-12-13T02:21:47.452Z,70.46
2022-12-13T02:24:54.010Z,70.66
2022-12-13T02:27:44.269Z,70.58
2022-12-13T02:30:27.075Z,70.61
2022-12-13T02:33:22.220Z,70.19
2022-12-13T02:36:01.045Z,70.33
2022-12-13T02:38:38.137Z,70.52
2022-12-13T02:41:16.060Z,70.27
2022-12-13T02:43:50.498Z,70.31
2022-12-13T02:46:24.697Z,70.43
2022-12-13T02:48:56.133Z,70.19
2022-12-13T02:51:26.339Z,70.62
2022-12-13T02:53:55.497Z,70.66
2022-12-13T02:56:24.501Z,70.21
2022-12-13T02:58:57.125Z,70.44
2022-12-13T03:01:43.891Z,70.19
2022-12-13T03:04:26.498Z,69.98
2022-12-13T03:07:12.859Z,69.95
2022-12-13T03:09:57.944Z,70.16
2022-12-13T03:12:52.693Z,70.24
2022-12-13T03:15:28.357Z,70.22
2022-12-13T03:18:04.149Z,70.25
2022-12-13T03:20:33.808Z,69.90
2022-12-13T03:23:02.836Z,70.25
2022-12-13T03:25:33.156Z,69.93
2022-12-13T03:28:02.940Z,70.08
2022-12-13T03:30:33.791Z,70.21
2022-12-13T03:33:04.074Z,70.24
2022-12-13T03:35:45.413Z,70.52
2022-12-13T03:38:21.930Z,70.88
2022-12-13T03:40:55.178Z,71.67
2022-12-13T03:43:24.711Z,71.20
2022-12-13T03:45:54.725Z,71.41
2022-12-13T03:48:26.163Z,71.81
2022-12-13T03:50:56.410Z,71.88
2022-12-13T03:53:33.374Z,71.76
2022-12-13T03:56:05.062Z,72.01
2022-12-13T03:58:37.786Z,72.34
2022-12-13T04:01:13.087Z,72.65
2022-12-13T04:03:45.590Z,72.41
2022-12-13T04:06:22.116Z,72.80
2022-12-13T04:08:53.340Z,72.67
2022-12-13T04:11:42.870Z,72.85
2022-12-13T04:14:22.627Z,72.90
2022-12-13T04:16:53.211Z,73.38
2022-12-13T04:19:24.311Z,73.28
2022-12-13T04:21:54.775Z,73.30
2022-12-13T04:24:30.960Z,73.72
2022-12-13T04:27:02.165Z,73.90
2022-12-13T04:29:34.659Z,73.74
2022-12-13T04:32:05.479Z,73.67
2022-12-13T04:35:01.420Z,73.30
2022-12-13T04:37:31.447Z,73.58
2022-12-13T04:40:01.298Z,73.81
2022-12-13T04:42:31.583Z,73.59
2022-12-13T04:45:00.723Z,73.63
2022-12-13T04:47:30.060Z,73.33
2022-12-13T04:50:01.036Z,73.39
2022-12-13T04:52:30.432Z,73.72
2022-12-13T04:54:59.449Z,73.55
2022-12-13T04:57:29.118Z,73.58
2022-12-13T04:59:58.151Z,73.62
2022-12-13T05:02:28.114Z,73.14
2022-12-13T05:04:57.373Z,73.32
2022-12-13T05:07:29.566Z,73.08
2022-12-13T05:09:58.704Z,73.30
2022-12-13T05:12:28.057Z,73.54
2022-12-13T05:14:57.141Z,73.68
2022-12-13T05:17:26.578Z,73.99
2022-12-13T05:19:55.692Z,74.02
2022-12-13T05:22:25.066Z,73.96
2022-12-13T05:24:55.531Z,73.95
2022-12-13T05:27:26.725Z,73.97
2022-12-13T05:30:02.904Z,74.26
2022-12-13T05:32:43.948Z,74.39
2022-12-13T05:35:22.146Z,74.68
2022-12-13T05:37:54.800Z,74.72
2022-12-13T05:40:27.094Z,74.69
2022-12-13T05:43:00.681Z,74.84
2022-12-13T05:45:31.089Z,75.01
2022-12-13T05:48:01.597Z,74.96
2022-12-13T05:50:30.929Z,74.95
2022-12-13T05:53:00.506Z,75.15
2022-12-13T05:55:31.278Z,74.75
2022-12-13T05:58:02.457Z,74.68
2022-12-13T06:00:31.937Z,74.94
2022-12-13T06:03:02.576Z,74.72
2022-12-13T06:05:32.319Z,74.99
2022-12-13T06:08:01.746Z,74.96
2022-12-13T06:10:34.098Z,75.10
2022-12-13T06:13:21.556Z,75.30
2022-12-13T06:16:01.055Z,75.16
2022-12-13T06:18:33.716Z,75.24
2022-12-13T06:21:05.448Z,75.22
2022-12-13T06:23:36.300Z,75.54
2022-12-13T06:26:07.953Z,75.42
2022-12-13T06:28:37.428Z,75.42
2022-12-13T06:31:07.275Z,75.72
2022-12-13T06:33:36.847Z,75.44
2022-12-13T06:36:06.729Z,75.78
2022-12-13T06:38:43.400Z,75.85
2022-12-13T06:41:16.801Z,75.72
2022-12-13T06:43:46.864Z,75.86
2022-12-13T06:46:16.512Z,75.58
2022-12-13T06:48:45.914Z,75.68
2022-12-13T06:51:22.684Z,75.52
2022-12-13T06:53:53.866Z,75.21
2022-12-13T06:56:24.882Z,75.17
2022-12-13T06:59:01.541Z,75.38
2022-12-13T07:01:37.744Z,75.26
2022-12-13T07:04:30.067Z,75.17
2022-12-13T07:07:01.075Z,74.84
2022-12-13T07:09:32.225Z,75.28
2022-12-13T07:12:05.158Z,75.39
2022-12-13T07:14:40.808Z,75.43
2022-12-13T07:17:10.875Z,75.50
2022-12-13T07:19:40.763Z,75.47
2022-12-13T07:22:09.876Z,75.62
2022-12-13T07:24:39.524Z,75.53
2022-12-13T07:27:10.027Z,75.27
2022-12-13T07:29:39.992Z,75.60
2022-12-13T07:32:09.187Z,75.68
2022-12-13T07:34:38.666Z,75.55
2022-12-13T07:37:07.794Z,75.31
2022-12-13T07:40:02.942Z,75.12
2022-12-13T07:42:34.400Z,75.29
2022-12-13T07:45:04.303Z,75.22
2022-12-13T07:47:35.627Z,75.44
2022-12-13T07:50:06.649Z,75.06
2022-12-13T07:52:53.976Z,74.97
2022-12-13T07:55:33.694Z,74.65
2022-12-13T07:58:15.442Z,74.86
2022-12-13T08:00:46.932Z,74.85
2022-12-13T08:03:24.923Z,75.27
2022-12-13T08:06:01.699Z,74.86
2022-12-13T08:08:31.825Z,74.86
2022-12-13T08:11:05.311Z,74.84
2022-12-13T08:13:37.268Z,74.70
2022-12-13T08:16:26.338Z,74.80
2022-12-13T08:19:02.245Z,74.57
2022-12-13T08:24:26.561Z,74.75
2022-12-13T08:27:01.259Z,74.70
2022-12-13T08:29:35.966Z,74.38
2022-12-13T08:32:07.996Z,74.52
2022-12-13T08:34:37.415Z,74.37
2022-12-13T08:37:06.927Z,74.65
2022-12-13T08:39:37.749Z,74.47
2022-12-13T08:42:14.773Z,73.97
2022-12-13T08:44:46.651Z,74.58
2022-12-13T08:47:24.481Z,74.42
2022-12-13T08:50:01.585Z,74.10
2022-12-13T08:52:40.070Z,74.03
2022-12-13T08:55:11.275Z,74.01
2022-12-13T08:57:41.861Z,73.70
2022-12-13T09:00:15.266Z,73.62
2022-12-13T09:02:44.969Z,73.94
2022-12-13T09:05:32.458Z,73.72
2022-12-13T09:08:22.812Z,73.82
2022-12-13T09:11:10.540Z,73.48
2022-12-13T09:13:43.336Z,73.51
2022-12-13T09:16:23.431Z,73.33
2022-12-13T09:18:54.707Z,73.21
2022-12-13T09:21:31.116Z,73.29
2022-12-13T09:24:02.563Z,73.09
2022-12-13T09:26:38.470Z,72.72
2022-12-13T09:29:10.917Z,72.83
2022-12-13T09:31:42.133Z,73.14
2022-12-13T09:34:12.055Z,72.75
2022-12-13T09:36:42.205Z,72.76
2022-12-13T09:39:13.305Z,72.77
2022-12-13T09:41:47.834Z,72.56
2022-12-13T09:44:30.880Z,72.74
2022-12-13T09:47:13.542Z,72.53
2022-12-13T09:49:52.333Z,73.02
2022-12-13T09:52:25.998Z,73.08
2022-12-13T09:55:06.649Z,73.02
2022-12-13T09:57:39.757Z,73.42
2022-12-13T10:00:15.080Z,73.37
2022-12-13T10:02:48.484Z,73.55
2022-12-13T10:05:25.394Z,73.35
2022-12-13T10:08:08.850Z,73.79
2022-12-13T10:10:38.248Z,73.50
2022-12-13T10:13:16.289Z,73.61
2022-12-13T10:15:51.805Z,73.64
2022-12-13T10:18:32.588Z,73.75
2022-12-13T10:21:05.553Z,73.58
2022-12-13T10:23:52.891Z,73.73
2022-12-13T10:26:25.148Z,73.57
2022-12-13T10:29:02.655Z,73.67
2022-12-13T10:31:40.169Z,73.82
2022-12-13T10:34:21.751Z,73.70
2022-12-13T10:36:51.964Z,73.63
2022-12-13T10:39:36.614Z,73.54
2022-12-13T10:42:13.555Z,73.34
2022-12-13T10:45:09.144Z,73.57
2022-12-13T10:47:38.716Z,73.39
2022-12-13T10:50:26.821Z,73.22
2022-12-13T10:52:57.751Z,72.89
2022-12-13T10:55:29.268Z,73.35
2022-12-13T10:58:02.400Z,73.03
2022-12-13T11:00:39.635Z,73.15
2022-12-13T11:03:11.923Z,73.33
2022-12-13T11:05:42.684Z,72.92
2022-12-13T11:08:22.117Z,73.29
2022-12-13T11:11:00.181Z,72.78
2022-12-13T11:13:38.563Z,73.23
2022-12-13T11:16:22.221Z,72.80
2022-12-13T11:18:55.485Z,73.64
2022-12-13T11:21:28.925Z,73.31
2022-12-13T11:24:01.925Z,73.29
2022-12-13T11:26:33.874Z,73.37
2022-12-13T11:29:16.573Z,73.64
2022-12-13T11:31:57.824Z,73.82
2022-12-13T11:34:36.899Z,73.80
2022-12-13T11:37:19.201Z,73.44
2022-12-13T11:40:01.183Z,73.64
2022-12-13T11:42:36.651Z,73.61
2022-12-13T11:45:22.603Z,73.48
2022-12-13T11:48:01.671Z,73.63
2022-12-13T11:50:37.140Z,73.79
2022-12-13T11:53:31.532Z,73.72
2022-12-13T11:56:07.111Z,73.27
2022-12-13T12:01:40.841Z,73.95
2022-12-13T12:04:20.589Z,73.79
2022-12-13T12:06:55.595Z,73.61
2022-12-13T12:09:30.194Z,73.95
2022-12-13T12:12:04.255Z,73.81
2022-12-13T12:14:42.850Z,74.13
2022-12-13T12:17:16.458Z,74.17
2022-12-13T12:19:50.465Z,74.33
2022-12-13T12:22:34.465Z,73.76
2022-12-13T12:25:24.087Z,73.75
2022-12-13T12:28:04.499Z,74.46
2022-12-13T12:30:42.142Z,75.08
2022-12-13T12:33:20.142Z,74.89
2022-12-13T12:36:28.166Z,74.69
2022-12-13T12:39:26.532Z,74.36
2022-12-13T12:42:16.487Z,74.76
2022-12-13T12:45:01.843Z,75.36
2022-12-13T12:48:26.265Z,75.32
2022-12-13T12:50:45.365Z,75.07
2022-12-13T12:53:34.433Z,75.23
2022-12-13T12:56:26.396Z,75.18
2022-12-13T12:59:05.991Z,74.84
2022-12-13T13:01:56.370Z,74.54
2022-12-13T13:04:29.693Z,75.02
2022-12-13T13:07:04.117Z,74.99
2022-12-13T13:09:34.275Z,74.31
2022-12-13T13:12:30.441Z,74.36
2022-12-13T13:14:57.062Z,74.28
2022-12-13T13:17:48.693Z,74.67
2022-12-13T13:20:27.158Z,74.13
2022-12-13T13:23:31.879Z,74.00
2022-12-13T13:26:30.221Z,73.94
2022-12-13T13:28:46.601Z,73.97
2022-12-13T13:31:17.266Z,73.94
2022-12-13T13:33:48.749Z,74.20
2022-12-13T13:36:52.446Z,73.49
2022-12-13T13:39:53.539Z,73.72
2022-12-13T13:42:24.086Z,73.87
2022-12-13T13:45:19.905Z,74.45
2022-12-13T13:48:17.164Z,74.25
2022-12-13T13:51:22.540Z,73.94
2022-12-13T13:54:29.306Z,74.24
2022-12-13T13:58:07.690Z,74.02
2022-12-13T14:00:35.906Z,73.62
2022-12-13T14:03:42.709Z,74.01
2022-12-13T14:06:51.136Z,74.08
2022-12-13T14:09:52.671Z,73.85
2022-12-13T14:12:58.562Z,74.68
2022-12-13T14:16:00.568Z,74.83
2022-12-13T14:19:00.899Z,74.74
2022-12-13T14:21:54.172Z,74.98
2022-12-13T14:24:34.338Z,75.26
2022-12-13T14:27:27.666Z,74.87
2022-12-13T14:29:59.135Z,75.08
2022-12-13T14:32:30.317Z,75.19
2022-12-13T14:35:24.713Z,75.24
2022-12-13T14:38:03.166Z,74.73
2022-12-13T14:40:37.930Z,75.06
2022-12-13T14:43:25.784Z,74.54
2022-12-13T14:45:58.013Z,74.44
2022-12-13T14:48:30.040Z,75.02
2022-12-13T14:51:00.832Z,74.60
2022-12-13T14:53:37.277Z,74.70
2022-12-13T14:56:09.390Z,74.59
2022-12-13T14:58:41.372Z,74.25
2022-12-13T15:01:29.280Z,74.43
2022-12-13T15:04:17.780Z,74.81
2022-12-13T15:06:48.784Z,74.45
2022-12-13T15:09:18.870Z,75.01
2022-12-13T15:11:48.552Z,74.72
2022-12-13T15:14:22.492Z,74.92
2022-12-13T15:16:54.048Z,75.00
2022-12-13T15:19:29.489Z,74.82
2022-12-13T15:22:07.631Z,74.82
2022-12-13T15:24:48.594Z,75.26
2022-12-13T15:27:28.124Z,75.04
2022-12-13T15:29:59.286Z,75.12
2022-12-13T15:32:28.654Z,75.09
2022-12-13T15:35:00.358Z,75.13
2022-12-13T15:37:36.983Z,75.12
2022-12-13T15:40:09.960Z,74.99
2022-12-13T15:42:46.861Z,74.83
2022-12-13T15:45:25.135Z,74.82
2022-12-13T15:47:55.888Z,74.91
2022-12-13T15:50:35.104Z,74.98
2022-12-13T15:53:07.425Z,75.10
2022-12-13T15:55:38.099Z,74.97
2022-12-13T15:58:23.471Z,74.67
2022-12-13T16:00:54.488Z,74.74
2022-12-13T16:03:27.806Z,74.90
2022-12-13T16:05:59.048Z,74.82
2022-12-13T16:08:31.551Z,74.53
2022-12-13T16:11:01.616Z,74.69
2022-12-13T16:13:32.766Z,74.64
2022-12-13T16:16:26.549Z,74.46
2022-12-13T16:18:58.493Z,74.84
2022-12-13T16:21:29.057Z,74.45
2022-12-13T16:23:57.984Z,74.62
2022-12-13T16:26:29.373Z,74.56
2022-12-13T16:29:00.343Z,74.34
2022-12-13T16:31:35.843Z,74.49
2022-12-13T16:34:05.594Z,74.13
2022-12-13T16:36:35.442Z,74.06
2022-12-13T16:39:05.191Z,74.41
2022-12-13T16:41:38.319Z,73.94
2022-12-13T16:44:11.397Z,74.08
2022-12-13T16:47:14.458Z,73.78
2022-12-13T16:49:32.570Z,73.84
2022-12-13T16:52:03.036Z,73.83
2022-12-13T16:54:32.361Z,73.91
2022-12-13T16:57:01.914Z,74.03
2022-12-13T16:59:31.421Z,73.84
2022-12-13T17:02:02.892Z,73.99
2022-12-13T17:04:32.093Z,73.68
2022-12-13T17:07:01.397Z,73.49
2022-12-13T17:09:31.939Z,73.26
2022-12-13T17:12:01.356Z,73.64
2022-12-13T17:14:30.469Z,73.52
2022-12-13T17:17:01.374Z,73.51
2022-12-13T17:19:31.839Z,73.88
2022-12-13T17:22:01.468Z,73.37
2022-12-13T17:24:32.851Z,73.21
2022-12-13T17:27:04.212Z,73.39
2022-12-13T17:29:34.076Z,73.55
2022-12-13T17:32:05.198Z,73.38
2022-12-13T17:34:34.718Z,73.43
2022-12-13T17:37:09.976Z,73.50
2022-12-13T17:39:39.856Z,73.38
2022-12-13T17:42:09.532Z,73.49
2022-12-13T17:44:39.078Z,73.33
2022-12-13T17:47:09.939Z,73.49
2022-12-13T17:49:39.100Z,73.47
2022-12-13T17:52:08.813Z,73.20
2022-12-13T17:54:37.942Z,73.28
2022-12-13T17:57:07.246Z,73.61
2022-12-13T17:59:43.177Z,73.52
2022-12-13T18:02:15.313Z,73.37
2022-12-13T18:04:44.729Z,73.40
2022-12-13T18:07:14.324Z,73.27
2022-12-13T18:09:44.036Z,73.20
2022-12-13T18:12:15.117Z,73.17
2022-12-13T18:14:44.167Z,73.24
2022-12-13T18:17:15.099Z,73.22
2022-12-13T18:19:44.546Z,73.44
2022-12-13T18:22:14.571Z,73.28
2022-12-13T18:24:44.105Z,73.32
2022-12-13T18:27:14.086Z,73.47
2022-12-13T18:29:55.129Z,73.14
2022-12-13T18:32:27.241Z,73.19
2022-12-13T18:34:56.886Z,73.04
2022-12-13T18:37:26.472Z,73.04
2022-12-13T18:39:55.555Z,72.81
2022-12-13T18:42:25.427Z,73.43
2022-12-13T18:44:55.126Z,73.17
2022-12-13T18:47:26.233Z,73.18
2022-12-13T18:49:57.320Z,73.23
2022-12-13T18:52:26.997Z,72.80
2022-12-13T18:54:56.632Z,73.23
2022-12-13T18:57:26.199Z,73.09
2022-12-13T18:59:55.434Z,73.25
2022-12-13T19:02:34.034Z,73.13
2022-12-13T19:05:04.473Z,73.24
2022-12-13T19:07:33.898Z,73.56
2022-12-13T19:10:03.354Z,72.90
2022-12-13T19:12:35.044Z,72.63
2022-12-13T19:15:05.752Z,72.91
2022-12-13T19:17:39.674Z,72.80
2022-12-13T19:20:10.031Z,72.81
2022-12-13T19:22:39.691Z,73.13
2022-12-13T19:25:10.575Z,72.86
2022-12-13T19:27:40.180Z,72.89
2022-12-13T19:30:10.448Z,72.84
2022-12-13T19:32:43.932Z,72.83
2022-12-13T19:35:17.832Z,72.54
2022-12-13T19:37:47.354Z,72.75
2022-12-13T19:40:17.772Z,72.84
2022-12-13T19:42:47.282Z,72.63
2022-12-13T19:45:16.688Z,72.48
2022-12-13T19:47:48.809Z,72.42
2022-12-13T19:50:18.556Z,72.29
2022-12-13T19:52:48.946Z,72.43
2022-12-13T19:55:18.123Z,72.25
2022-12-13T19:57:47.451Z,72.30
2022-12-13T20:00:17.639Z,72.25
2022-12-13T20:02:48.937Z,72.46
2022-12-13T20:05:19.157Z,72.46
2022-12-13T20:07:48.573Z,72.46
2022-12-13T20:10:17.685Z,72.73
2022-12-13T20:12:47.681Z,72.60
2022-12-13T20:15:17.612Z,72.55
2022-12-13T20:17:48.375Z,72.71
2022-12-13T20:20:17.782Z,72.48
2022-12-13T20:22:48.358Z,73.10
2022-12-13T20:25:18.004Z,72.89
2022-12-13T20:27:47.912Z,73.03
2022-12-13T20:30:17.204Z,73.09
2022-12-13T20:32:47.904Z,72.80
2022-12-13T20:35:17.139Z,73.73
2022-12-13T20:37:48.416Z,73.73
2022-12-13T20:40:21.613Z,73.56
2022-12-13T20:42:56.174Z,73.76
2022-12-13T20:45:25.830Z,73.41
2022-12-13T20:47:56.509Z,73.62
2022-12-13T20:50:25.592Z,73.59
2022-12-13T20:52:56.204Z,74.15
2022-12-13T20:55:26.513Z,74.13
2022-12-13T20:57:55.917Z,74.26
2022-12-13T21:00:25.183Z,74.51
2022-12-13T21:02:56.162Z,74.39
2022-12-13T21:05:25.268Z,74.62
2022-12-13T21:08:12.262Z,74.58
2022-12-13T21:10:42.007Z,74.74
2022-12-13T21:13:11.479Z,74.88
2022-12-13T21:15:40.516Z,75.15
2022-12-13T21:18:11.299Z,75.19
2022-12-13T21:20:40.382Z,75.15
2022-12-13T21:23:09.750Z,75.64
2022-12-13T21:25:38.880Z,75.33
2022-12-13T21:28:08.264Z,75.98
2022-12-13T21:30:37.340Z,75.71
2022-12-13T21:33:06.904Z,75.42
2022-12-13T21:35:37.633Z,75.77
2022-12-13T21:38:07.019Z,75.62
2022-12-13T21:40:36.267Z,75.86
2022-12-13T21:43:05.597Z,75.79
2022-12-13T21:45:35.286Z,76.24
2022-12-13T21:48:04.959Z,75.94
2022-12-13T21:50:34.102Z,76.02
2022-12-13T21:53:06.804Z,75.55
2022-12-13T21:55:39.530Z,75.51
2022-12-13T21:58:28.945Z,75.85
2022-12-13T22:00:58.514Z,75.92
2022-12-13T22:03:27.935Z,76.53
2022-12-13T22:05:56.976Z,76.37
2022-12-13T22:08:28.126Z,76.33
2022-12-13T22:11:21.158Z,76.61
2022-12-13T22:13:51.071Z,76.14
2022-12-13T22:16:20.231Z,76.41
2022-12-13T22:18:49.556Z,76.30
2022-12-13T22:21:18.659Z,76.15
2022-12-13T22:23:49.511Z,76.38
2022-12-13T22:26:18.626Z,76.42
2022-12-13T22:28:47.977Z,76.34
2022-12-13T22:31:17.383Z,76.53
2022-12-13T22:33:47.089Z,75.96
2022-12-13T22:36:16.729Z,76.53
2022-12-13T22:38:50.962Z,76.60
2022-12-13T22:41:20.091Z,76.14
2022-12-13T22:43:49.730Z,76.21
2022-12-13T22:46:20.731Z,76.45
2022-12-13T22:48:51.815Z,76.46
2022-12-13T22:51:21.601Z,76.61
2022-12-13T22:53:52.384Z,76.51
2022-12-13T22:56:23.847Z,75.96
2022-12-13T22:58:55.403Z,76.26
2022-12-13T23:01:26.411Z,75.99
2022-12-13T23:03:55.898Z,76.09
2022-12-13T23:06:27.143Z,75.58
2022-12-13T23:08:59.610Z,75.81
2022-12-13T23:11:47.450Z,75.96
2022-12-13T23:14:19.659Z,76.02
2022-12-13T23:16:48.851Z,76.00
2022-12-13T23:22:09.679Z,75.64
2022-12-13T23:24:40.414Z,75.42
2022-12-13T23:27:11.182Z,75.61
2022-12-13T23:29:40.674Z,75.58
2022-12-13T23:32:09.720Z,75.32
2022-12-13T23:34:39.817Z,75.49
2022-12-13T23:37:08.905Z,75.41
2022-12-13T23:39:39.737Z,75.52
2022-12-13T23:42:08.874Z,75.39
2022-12-13T23:44:38.467Z,75.54
2022-12-13T23:47:07.694Z,75.82
2022-12-13T23:49:37.067Z,75.89
2022-12-13T23:52:06.176Z,75.80
2022-12-13T23:54:35.576Z,75.33
2022-12-13T23:57:06.392Z,75.98
2022-12-13T23:59:36.012Z,75.86
